Estación Meteorológica Peña el Pijo (Robertgarden) [ 12/16/19 01:05:52 CET ]

Fecha Hora Presion(HPa) Temp (°C) Humedad % Rocio (°C) Viento ( m/s) Direccion Lluvia 1Hora(mm) Lluvia 24H(mm) LLuvia Total(mm)
2019-Feb-24 01:01:31 1017.900 2.8 51 -6.3         183.37
2019-Feb-24 02:01:47 1017.900 2.3 55 -5.8         183.37
2019-Feb-24 03:10:08 1017.800 2.1 56 -5.8         183.37
2019-Feb-24 04:01:42 1017.200 1.4 57 -6.2         183.37
2019-Feb-24 05:01:41 1017.100 1.3 61 -5.4         183.37
2019-Feb-24 06:01:42 1017.400 0.6 64 -5.5         183.37
2019-Feb-24 07:01:44 1017.600 0.1 66 -5.5         183.37
2019-Feb-24 08:01:47 1018.000 -0.6 69 -5.6         183.37
2019-Feb-24 09:02:14 1018.800 1.5 72 -3.0         183.37
2019-Feb-24 10:01:40 1019.100 8.5 52 -0.8         183.37
2019-Feb-24 11:01:53 1019.100 14.4 38 0.2         183.37
2019-Feb-24 12:02:12 1019.300 16.7 29 -1.5         183.37
2019-Feb-24 13:01:59 1019.300 15.8 26 -3.9 1.7 NNE     183.37
2019-Feb-24 14:01:54 1019.000 18.1 26 -1.9         183.37
2019-Feb-24 15:01:39 1018.600 18.8 25 -1.9 0.4 NE     183.37
2019-Feb-24 16:01:51 1018.400 17.6 28 -1.3         183.37
2019-Feb-24 17:01:59 1018.400 16.4 30 -1.2         183.37
2019-Feb-24 18:01:39 1019.100 14.3 37 -0.3         183.37
2019-Feb-24 19:01:42 1019.700 11.8 46 0.5         183.37
2019-Feb-24 20:01:41 1020.200 9.1 54 0.2         183.37
2019-Feb-24 21:01:50 1020.600 6.6 57 -1.3         183.37
2019-Feb-24 22:01:47 1021.100 4.1 64 -2.2         183.37
2019-Feb-24 23:01:49 1021.100 3.0 68 -2.3         183.37

Temperatura Máxima:18°    Temperatura Mínima:
Presión Máxima:1021.100 Hpa    Presión Mínima:1017.100 Hpa


Volver